sensor_id;sensor_type;location;lat;lon;timestamp;pressure;altitude;pressure_sealevel;temperature;humidity
11712;BME280;5912;51.034;6.984;2023-08-07T00:00:47;56482.53;;;-142.13;77.63
11712;BME280;5912;51.034;6.984;2023-08-07T00:03:12;56468.50;;;-142.13;77.59
11712;BME280;5912;51.034;6.984;2023-08-07T00:05:45;56486.53;;;-142.13;77.58
11712;BME280;5912;51.034;6.984;2023-08-07T00:08:10;56482.53;;;-142.13;77.79
11712;BME280;5912;51.034;6.984;2023-08-07T00:10:39;56492.53;;;-142.13;77.73
11712;BME280;5912;51.034;6.984;2023-08-07T00:13:26;56496.56;;;-142.13;77.75
11712;BME280;5912;51.034;6.984;2023-08-07T00:15:51;56470.50;;;-142.13;77.75
11712;BME280;5912;51.034;6.984;2023-08-07T00:18:22;56458.50;;;-142.13;77.98
11712;BME280;5912;51.034;6.984;2023-08-07T00:20:48;56472.50;;;-142.13;77.95
11712;BME280;5912;51.034;6.984;2023-08-07T00:23:13;56516.59;;;-142.13;78.25
11712;BME280;5912;51.034;6.984;2023-08-07T00:25:38;56488.53;;;-142.13;78.13
11712;BME280;5912;51.034;6.984;2023-08-07T00:28:16;56480.53;;;-142.13;78.37
11712;BME280;5912;51.034;6.984;2023-08-07T00:30:41;56468.50;;;-142.13;78.31
11712;BME280;5912;51.034;6.984;2023-08-07T00:33:06;56490.53;;;-142.13;78.46
11712;BME280;5912;51.034;6.984;2023-08-07T00:35:44;56512.59;;;-142.13;78.79
11712;BME280;5912;51.034;6.984;2023-08-07T00:38:18;56498.56;;;-142.13;78.86
11712;BME280;5912;51.034;6.984;2023-08-07T00:40:43;56516.59;;;-142.13;78.99
11712;BME280;5912;51.034;6.984;2023-08-07T00:43:14;56492.53;;;-142.13;79.06
11712;BME280;5912;51.034;6.984;2023-08-07T00:45:59;56564.66;;;-142.13;78.90
11712;BME280;5912;51.034;6.984;2023-08-07T00:48:33;56468.50;;;-142.13;79.11
11712;BME280;5912;51.034;6.984;2023-08-07T00:50:59;56484.53;;;-142.13;79.42
11712;BME280;5912;51.034;6.984;2023-08-07T00:53:24;56506.56;;;-142.13;79.41
11712;BME280;5912;51.034;6.984;2023-08-07T00:55:56;56488.53;;;-142.13;79.50
11712;BME280;5912;51.034;6.984;2023-08-07T00:58:35;56470.50;;;-142.13;79.43
11712;BME280;5912;51.034;6.984;2023-08-07T01:01:05;56508.56;;;-142.13;79.35
11712;BME280;5912;51.034;6.984;2023-08-07T01:03:49;56524.59;;;-142.13;79.48
11712;BME280;5912;51.034;6.984;2023-08-07T01:06:30;56508.56;;;-142.13;79.41
11712;BME280;5912;51.034;6.984;2023-08-07T01:09:04;56496.56;;;-142.13;79.41
11712;BME280;5912;51.034;6.984;2023-08-07T01:15:44;56498.56;;;-142.13;79.91
11712;BME280;5912;51.034;6.984;2023-08-07T01:18:07;56490.53;;;-142.13;79.66
11712;BME280;5912;51.034;6.984;2023-08-07T01:20:32;56490.53;;;-142.13;80.25
11712;BME280;5912;51.034;6.984;2023-08-07T01:23:04;56498.56;;;-142.13;80.38
11712;BME280;5912;51.034;6.984;2023-08-07T01:25:38;56498.56;;;-142.13;80.51
11712;BME280;5912;51.034;6.984;2023-08-07T01:28:33;56468.50;;;-142.13;80.41
11712;BME280;5912;51.034;6.984;2023-08-07T01:31:13;56502.56;;;-142.13;80.35
11712;BME280;5912;51.034;6.984;2023-08-07T01:33:54;56518.59;;;-142.13;80.42
11712;BME280;5912;51.034;6.984;2023-08-07T01:36:59;56468.50;;;-142.13;80.78
11712;BME280;5912;51.034;6.984;2023-08-07T01:39:27;56482.53;;;-142.13;80.88
11712;BME280;5912;51.034;6.984;2023-08-07T01:41:53;56496.56;;;-142.13;80.61
11712;BME280;5912;51.034;6.984;2023-08-07T01:47:37;56504.56;;;-142.13;80.59
11712;BME280;5912;51.034;6.984;2023-08-07T01:53:30;56506.56;;;-142.13;80.82
11712;BME280;5912;51.034;6.984;2023-08-07T01:56:24;56518.59;;;-142.13;81.01
11712;BME280;5912;51.034;6.984;2023-08-07T01:58:52;56510.56;;;-142.13;80.94
11712;BME280;5912;51.034;6.984;2023-08-07T02:01:20;56498.56;;;-142.13;80.78
11712;BME280;5912;51.034;6.984;2023-08-07T02:03:49;56526.59;;;-142.13;81.00
11712;BME280;5912;51.034;6.984;2023-08-07T02:06:14;56544.63;;;-142.13;80.96
11712;BME280;5912;51.034;6.984;2023-08-07T02:08:49;56516.59;;;-142.13;81.12
11712;BME280;5912;51.034;6.984;2023-08-07T02:11:29;56506.56;;;-142.13;81.21
11712;BME280;5912;51.034;6.984;2023-08-07T02:14:11;56512.59;;;-142.13;80.86
11712;BME280;5912;51.034;6.984;2023-08-07T02:16:55;56478.53;;;-142.13;81.10
11712;BME280;5912;51.034;6.984;2023-08-07T02:19:20;56492.53;;;-142.13;80.94
11712;BME280;5912;51.034;6.984;2023-08-07T02:21:49;56570.69;;;-142.13;81.02
11712;BME280;5912;51.034;6.984;2023-08-07T02:24:32;56504.56;;;-142.13;80.91
11712;BME280;5912;51.034;6.984;2023-08-07T02:27:08;56508.56;;;-142.13;81.00
11712;BME280;5912;51.034;6.984;2023-08-07T02:29:55;56512.59;;;-142.13;81.14
11712;BME280;5912;51.034;6.984;2023-08-07T02:32:20;56510.56;;;-142.13;81.05
11712;BME280;5912;51.034;6.984;2023-08-07T02:34:47;56518.59;;;-142.13;81.13
11712;BME280;5912;51.034;6.984;2023-08-07T02:37:28;56508.56;;;-142.13;81.19
11712;BME280;5912;51.034;6.984;2023-08-07T02:39:56;56512.59;;;-142.13;80.93
11712;BME280;5912;51.034;6.984;2023-08-07T02:42:21;56518.59;;;-142.13;81.24
11712;BME280;5912;51.034;6.984;2023-08-07T02:45:08;56532.63;;;-142.13;81.03
11712;BME280;5912;51.034;6.984;2023-08-07T02:47:34;56494.56;;;-142.13;81.53
11712;BME280;5912;51.034;6.984;2023-08-07T02:50:02;56510.56;;;-142.13;81.26
11712;BME280;5912;51.034;6.984;2023-08-07T02:52:40;56500.56;;;-142.13;81.46
11712;BME280;5912;51.034;6.984;2023-08-07T02:55:05;56498.56;;;-142.13;81.17
11712;BME280;5912;51.034;6.984;2023-08-07T02:57:37;56500.56;;;-142.13;81.44
11712;BME280;5912;51.034;6.984;2023-08-07T03:00:17;56498.56;;;-142.13;81.27
11712;BME280;5912;51.034;6.984;2023-08-07T03:03:00;56496.56;;;-142.13;81.12
11712;BME280;5912;51.034;6.984;2023-08-07T03:08:32;56508.56;;;-142.13;81.25
11712;BME280;5912;51.034;6.984;2023-08-07T03:11:09;56514.59;;;-142.13;81.43
11712;BME280;5912;51.034;6.984;2023-08-07T03:14:04;56524.59;;;-142.13;81.51
11712;BME280;5912;51.034;6.984;2023-08-07T03:16:58;56520.59;;;-142.13;81.51
11712;BME280;5912;51.034;6.984;2023-08-07T03:19:53;56512.59;;;-142.13;81.37
11712;BME280;5912;51.034;6.984;2023-08-07T03:22:28;56518.59;;;-142.13;81.28
11712;BME280;5912;51.034;6.984;2023-08-07T03:24:53;56512.59;;;-142.13;81.22
11712;BME280;5912;51.034;6.984;2023-08-07T03:30:37;56540.63;;;-142.13;81.23
11712;BME280;5912;51.034;6.984;2023-08-07T03:33:03;56518.59;;;-142.13;81.22
11712;BME280;5912;51.034;6.984;2023-08-07T03:35:34;56516.59;;;-142.13;80.92
11712;BME280;5912;51.034;6.984;2023-08-07T03:41:18;56534.63;;;-142.13;80.80
11712;BME280;5912;51.034;6.984;2023-08-07T03:43:59;56492.53;;;-142.13;81.14
11712;BME280;5912;51.034;6.984;2023-08-07T03:46:26;56728.94;;;-142.13;80.85
11712;BME280;5912;51.034;6.984;2023-08-07T03:48:51;56524.59;;;-142.13;80.87
11712;BME280;5912;51.034;6.984;2023-08-07T03:51:17;56504.56;;;-142.13;80.98
11712;BME280;5912;51.034;6.984;2023-08-07T03:53:54;56512.59;;;-142.13;81.01
11712;BME280;5912;51.034;6.984;2023-08-07T03:56:19;56520.59;;;-142.13;80.87
11712;BME280;5912;51.034;6.984;2023-08-07T03:58:47;56490.53;;;-142.13;80.84
11712;BME280;5912;51.034;6.984;2023-08-07T04:01:24;56506.56;;;-142.13;80.80
11712;BME280;5912;51.034;6.984;2023-08-07T04:03:49;56514.59;;;-142.13;80.89
11712;BME280;5912;51.034;6.984;2023-08-07T04:06:19;56508.56;;;-142.13;80.92
11712;BME280;5912;51.034;6.984;2023-08-07T04:08:58;56518.59;;;-142.13;80.73
11712;BME280;5912;51.034;6.984;2023-08-07T04:12:14;56532.63;;;-142.13;80.79
11712;BME280;5912;51.034;6.984;2023-08-07T04:18:06;56520.59;;;-142.13;80.77
11712;BME280;5912;51.034;6.984;2023-08-07T04:20:31;56510.56;;;-142.13;80.71
11712;BME280;5912;51.034;6.984;2023-08-07T04:23:03;56504.56;;;-142.13;80.71
11712;BME280;5912;51.034;6.984;2023-08-07T04:26:02;56522.59;;;-142.13;80.73
11712;BME280;5912;51.034;6.984;2023-08-07T04:28:30;56532.63;;;-142.13;80.76
11712;BME280;5912;51.034;6.984;2023-08-07T04:30:58;56528.59;;;-142.13;80.78
11712;BME280;5912;51.034;6.984;2023-08-07T04:33:38;56494.56;;;-142.13;80.85
11712;BME280;5912;51.034;6.984;2023-08-07T04:36:16;56524.59;;;-142.13;80.69
11712;BME280;5912;51.034;6.984;2023-08-07T04:38:41;56506.56;;;-142.13;80.69
11712;BME280;5912;51.034;6.984;2023-08-07T04:41:35;56512.59;;;-142.13;80.92
11712;BME280;5912;51.034;6.984;2023-08-07T04:44:04;56492.53;;;-142.13;80.81
11712;BME280;5912;51.034;6.984;2023-08-07T04:46:30;56498.56;;;-142.13;80.72
11712;BME280;5912;51.034;6.984;2023-08-07T04:52:30;56500.56;;;-142.13;80.36
11712;BME280;5912;51.034;6.984;2023-08-07T04:54:55;56474.53;;;-142.13;80.52
11712;BME280;5912;51.034;6.984;2023-08-07T04:57:21;56494.56;;;-142.13;80.49
11712;BME280;5912;51.034;6.984;2023-08-07T04:59:53;56530.59;;;-142.13;80.62
11712;BME280;5912;51.034;6.984;2023-08-07T05:02:30;56518.59;;;-142.13;80.47
11712;BME280;5912;51.034;6.984;2023-08-07T05:04:55;56490.53;;;-142.13;80.57
11712;BME280;5912;51.034;6.984;2023-08-07T05:07:39;56484.53;;;-142.13;80.04
11712;BME280;5912;51.034;6.984;2023-08-07T05:10:10;56504.56;;;-142.13;80.34
11712;BME280;5912;51.034;6.984;2023-08-07T05:12:48;56492.53;;;-142.13;80.40
11712;BME280;5912;51.034;6.984;2023-08-07T05:15:27;56510.56;;;-142.13;80.24
11712;BME280;5912;51.034;6.984;2023-08-07T05:17:53;56496.56;;;-142.13;80.23
11712;BME280;5912;51.034;6.984;2023-08-07T05:20:34;56514.59;;;-142.13;80.29
11712;BME280;5912;51.034;6.984;2023-08-07T05:23:09;56514.59;;;-142.13;80.27
11712;BME280;5912;51.034;6.984;2023-08-07T05:25:35;56508.56;;;-142.13;80.54
11712;BME280;5912;51.034;6.984;2023-08-07T05:28:25;56516.59;;;-142.13;80.19
11712;BME280;5912;51.034;6.984;2023-08-07T05:30:50;56500.56;;;-142.13;80.11
11712;BME280;5912;51.034;6.984;2023-08-07T05:37:04;56488.53;;;-142.13;79.67
11712;BME280;5912;51.034;6.984;2023-08-07T05:39:48;56508.56;;;-142.13;79.48
11712;BME280;5912;51.034;6.984;2023-08-07T05:42:38;56534.63;;;-142.13;79.46
11712;BME280;5912;51.034;6.984;2023-08-07T05:45:19;56524.59;;;-142.13;79.25
11712;BME280;5912;51.034;6.984;2023-08-07T05:47:44;56472.50;;;-142.13;79.46
11712;BME280;5912;51.034;6.984;2023-08-07T05:50:28;56506.56;;;-142.13;79.13
11712;BME280;5912;51.034;6.984;2023-08-07T05:52:59;56496.56;;;-142.13;79.18
11712;BME280;5912;51.034;6.984;2023-08-07T05:55:24;56474.53;;;-142.13;78.95
11712;BME280;5912;51.034;6.984;2023-08-07T05:58:02;56518.59;;;-142.13;78.88
11712;BME280;5912;51.034;6.984;2023-08-07T06:00:49;56488.53;;;-142.13;78.90
11712;BME280;5912;51.034;6.984;2023-08-07T06:03:21;56498.56;;;-142.13;78.88
11712;BME280;5912;51.034;6.984;2023-08-07T06:05:58;56508.56;;;-142.13;78.90
11712;BME280;5912;51.034;6.984;2023-08-07T06:08:41;56486.53;;;-142.13;78.69
11712;BME280;5912;51.034;6.984;2023-08-07T06:11:10;56500.56;;;-142.13;78.88
11712;BME280;5912;51.034;6.984;2023-08-07T06:16:44;56458.50;;;-142.13;78.59
11712;BME280;5912;51.034;6.984;2023-08-07T06:22:50;56492.53;;;-142.13;78.51
11712;BME280;5912;51.034;6.984;2023-08-07T06:28:45;56498.56;;;-142.13;78.07
11712;BME280;5912;51.034;6.984;2023-08-07T06:31:23;56488.53;;;-142.13;78.45
11712;BME280;5912;51.034;6.984;2023-08-07T06:34:00;56526.59;;;-142.13;78.57
11712;BME280;5912;51.034;6.984;2023-08-07T06:36:25;56474.53;;;-142.13;78.50
11712;BME280;5912;51.034;6.984;2023-08-07T06:38:51;56522.59;;;-142.13;78.88
11712;BME280;5912;51.034;6.984;2023-08-07T06:41:41;56510.56;;;-142.13;78.95
11712;BME280;5912;51.034;6.984;2023-08-07T06:44:19;56502.56;;;-142.13;78.81
11712;BME280;5912;51.034;6.984;2023-08-07T06:46:44;56498.56;;;-142.13;78.67
11712;BME280;5912;51.034;6.984;2023-08-07T06:49:31;56488.53;;;-142.13;78.99
11712;BME280;5912;51.034;6.984;2023-08-07T06:52:17;56508.56;;;-142.13;78.92
11712;BME280;5912;51.034;6.984;2023-08-07T06:54:54;56488.53;;;-142.13;79.08
11712;BME280;5912;51.034;6.984;2023-08-07T06:57:22;56500.56;;;-142.13;79.03
11712;BME280;5912;51.034;6.984;2023-08-07T06:59:54;56484.53;;;-142.13;79.13
11712;BME280;5912;51.034;6.984;2023-08-07T07:02:19;56446.47;;;-142.13;78.87
11712;BME280;5912;51.034;6.984;2023-08-07T07:04:57;56518.59;;;-142.13;78.40
11712;BME280;5912;51.034;6.984;2023-08-07T07:07:32;56492.53;;;-142.13;78.33
11712;BME280;5912;51.034;6.984;2023-08-07T07:10:09;56496.56;;;-142.13;78.59
11712;BME280;5912;51.034;6.984;2023-08-07T07:13:02;56492.53;;;-142.13;78.64
11712;BME280;5912;51.034;6.984;2023-08-07T07:15:33;56490.53;;;-142.13;78.88
11712;BME280;5912;51.034;6.984;2023-08-07T07:17:58;56486.53;;;-142.13;78.74
11712;BME280;5912;51.034;6.984;2023-08-07T07:20:40;56504.56;;;-142.13;78.47
11712;BME280;5912;51.034;6.984;2023-08-07T07:23:08;56452.47;;;-142.13;78.30
11712;BME280;5912;51.034;6.984;2023-08-07T07:25:48;56476.53;;;-142.13;78.45
11712;BME280;5912;51.034;6.984;2023-08-07T07:28:34;56502.56;;;-142.13;78.53
11712;BME280;5912;51.034;6.984;2023-08-07T07:30:59;56486.53;;;-142.13;78.77
11712;BME280;5912;51.034;6.984;2023-08-07T07:33:56;56512.59;;;-142.13;78.76
11712;BME280;5912;51.034;6.984;2023-08-07T07:36:24;56488.53;;;-142.13;78.37
11712;BME280;5912;51.034;6.984;2023-08-07T07:38:50;56472.50;;;-142.13;78.47
11712;BME280;5912;51.034;6.984;2023-08-07T07:41:40;56478.53;;;-142.13;78.09
11712;BME280;5912;51.034;6.984;2023-08-07T07:44:14;56488.53;;;-142.13;78.43
11712;BME280;5912;51.034;6.984;2023-08-07T07:47:08;56508.56;;;-142.13;79.00
11712;BME280;5912;51.034;6.984;2023-08-07T07:50:10;56488.53;;;-142.13;78.62
11712;BME280;5912;51.034;6.984;2023-08-07T07:52:37;56480.53;;;-142.13;78.21
11712;BME280;5912;51.034;6.984;2023-08-07T07:55:03;56470.50;;;-142.13;78.02
11712;BME280;5912;51.034;6.984;2023-08-07T07:57:29;56506.56;;;-142.13;78.17
11712;BME280;5912;51.034;6.984;2023-08-07T08:00:25;56490.53;;;-142.13;78.11
11712;BME280;5912;51.034;6.984;2023-08-07T08:03:03;56490.53;;;-142.13;78.32
11712;BME280;5912;51.034;6.984;2023-08-07T08:05:29;56472.50;;;-142.13;77.92
11712;BME280;5912;51.034;6.984;2023-08-07T08:08:12;56460.50;;;-142.13;77.83
11712;BME280;5912;51.034;6.984;2023-08-07T08:10:41;56472.50;;;-142.13;77.27
11712;BME280;5912;51.034;6.984;2023-08-07T08:13:34;56486.53;;;-142.13;77.40
11712;BME280;5912;51.034;6.984;2023-08-07T08:16:04;56478.53;;;-142.13;77.27
11712;BME280;5912;51.034;6.984;2023-08-07T08:18:38;56460.50;;;-142.13;77.18
11712;BME280;5912;51.034;6.984;2023-08-07T08:21:36;56466.50;;;-142.13;77.37
11712;BME280;5912;51.034;6.984;2023-08-07T08:24:02;56480.53;;;-142.13;77.20
11712;BME280;5912;51.034;6.984;2023-08-07T08:26:37;56482.53;;;-142.13;76.71
11712;BME280;5912;51.034;6.984;2023-08-07T08:29:02;56468.50;;;-142.13;76.55
11712;BME280;5912;51.034;6.984;2023-08-07T08:31:49;56466.50;;;-142.13;76.69
11712;BME280;5912;51.034;6.984;2023-08-07T08:34:18;56472.50;;;-142.13;76.77
11712;BME280;5912;51.034;6.984;2023-08-07T08:37:08;56472.50;;;-142.13;76.62
11712;BME280;5912;51.034;6.984;2023-08-07T08:39:48;56448.47;;;-142.13;76.54
11712;BME280;5912;51.034;6.984;2023-08-07T08:42:14;56448.47;;;-142.13;76.95
11712;BME280;5912;51.034;6.984;2023-08-07T08:44:50;56456.50;;;-142.13;77.19
11712;BME280;5912;51.034;6.984;2023-08-07T08:47:16;56452.47;;;-142.13;77.18
11712;BME280;5912;51.034;6.984;2023-08-07T08:49:46;56440.47;;;-142.13;76.94
11712;BME280;5912;51.034;6.984;2023-08-07T08:52:13;56460.50;;;-142.13;76.53
11712;BME280;5912;51.034;6.984;2023-08-07T08:54:57;56466.50;;;-142.13;76.46
11712;BME280;5912;51.034;6.984;2023-08-07T08:57:29;56448.47;;;-142.13;76.24
11712;BME280;5912;51.034;6.984;2023-08-07T09:00:14;56452.47;;;-142.13;76.23
11712;BME280;5912;51.034;6.984;2023-08-07T09:02:53;56472.50;;;-142.13;75.79
11712;BME280;5912;51.034;6.984;2023-08-07T09:05:20;56442.47;;;-142.13;75.60
11712;BME280;5912;51.034;6.984;2023-08-07T09:07:49;56460.50;;;-142.13;75.59
11712;BME280;5912;51.034;6.984;2023-08-07T09:10:20;56464.50;;;-142.13;75.65
11712;BME280;5912;51.034;6.984;2023-08-07T09:12:54;56462.50;;;-142.13;75.88
11712;BME280;5912;51.034;6.984;2023-08-07T09:15:29;56468.50;;;-142.13;76.02
11712;BME280;5912;51.034;6.984;2023-08-07T09:18:10;56480.53;;;-142.13;76.07
11712;BME280;5912;51.034;6.984;2023-08-07T09:20:59;56448.47;;;-142.13;76.44
11712;BME280;5912;51.034;6.984;2023-08-07T09:23:30;56452.47;;;-142.13;76.90
11712;BME280;5912;51.034;6.984;2023-08-07T09:26:03;56480.53;;;-142.13;77.32
11712;BME280;5912;51.034;6.984;2023-08-07T09:28:30;56456.50;;;-142.13;77.12
11712;BME280;5912;51.034;6.984;2023-08-07T09:31:07;56422.44;;;-142.13;77.35
11712;BME280;5912;51.034;6.984;2023-08-07T09:33:34;56422.44;;;-142.13;77.00
11712;BME280;5912;51.034;6.984;2023-08-07T09:36:08;56448.47;;;-142.13;76.90
11712;BME280;5912;51.034;6.984;2023-08-07T09:38:36;56396.41;;;-142.13;76.69
11712;BME280;5912;51.034;6.984;2023-08-07T09:41:08;56378.38;;;-142.13;75.02
11712;BME280;5912;51.034;6.984;2023-08-07T09:43:34;56392.38;;;-142.13;73.83
11712;BME280;5912;51.034;6.984;2023-08-07T09:46:20;56340.31;;;-142.13;72.66
11712;BME280;5912;51.034;6.984;2023-08-07T09:48:58;56326.28;;;-142.13;70.55
11712;BME280;5912;51.034;6.984;2023-08-07T09:51:24;56364.34;;;-142.13;69.99
11712;BME280;5912;51.034;6.984;2023-08-07T09:54:05;56302.25;;;-142.13;67.00
11712;BME280;5912;51.034;6.984;2023-08-07T09:56:35;56340.31;;;-142.13;65.67
11712;BME280;5912;51.034;6.984;2023-08-07T09:59:03;56360.34;;;-142.13;67.39
11712;BME280;5912;51.034;6.984;2023-08-07T10:01:29;56372.34;;;-142.13;68.75
11712;BME280;5912;51.034;6.984;2023-08-07T10:04:10;56328.28;;;-142.13;67.37
11712;BME280;5912;51.034;6.984;2023-08-07T10:06:49;56328.28;;;-142.13;65.11
11712;BME280;5912;51.034;6.984;2023-08-07T10:09:16;56310.25;;;-142.13;64.82
11712;BME280;5912;51.034;6.984;2023-08-07T10:11:41;56332.28;;;-142.13;63.15
11712;BME280;5912;51.034;6.984;2023-08-07T10:14:09;56280.22;;;-142.13;63.23
11712;BME280;5912;51.034;6.984;2023-08-07T10:16:34;56264.19;;;-142.13;62.37
11712;BME280;5912;51.034;6.984;2023-08-07T10:19:05;56252.16;;;-142.13;62.11
11712;BME280;5912;51.034;6.984;2023-08-07T10:21:32;56242.16;;;-142.13;60.10
11712;BME280;5912;51.034;6.984;2023-08-07T10:24:00;56202.09;;;-142.13;57.74
11712;BME280;5912;51.034;6.984;2023-08-07T10:26:47;56202.09;;;-142.13;54.81
11712;BME280;5912;51.034;6.984;2023-08-07T10:29:20;56170.03;;;-142.13;49.52
11712;BME280;5912;51.034;6.984;2023-08-07T10:31:51;56174.03;;;-142.13;51.02
11712;BME280;5912;51.034;6.984;2023-08-07T10:34:17;56178.03;;;-142.13;50.40
11712;BME280;5912;51.034;6.984;2023-08-07T10:36:52;56176.03;;;-142.13;47.76
11712;BME280;5912;51.034;6.984;2023-08-07T10:39:20;56156.00;;;-142.13;47.30
11712;BME280;5912;51.034;6.984;2023-08-07T10:42:01;56140.00;;;-142.13;46.66
11712;BME280;5912;51.034;6.984;2023-08-07T10:44:32;56137.97;;;-142.13;46.39
11712;BME280;5912;51.034;6.984;2023-08-07T10:50:19;56111.94;;;-142.13;44.56
11712;BME280;5912;51.034;6.984;2023-08-07T10:52:52;56089.91;;;-142.13;42.04
11712;BME280;5912;51.034;6.984;2023-08-07T10:55:17;56083.91;;;-142.13;38.79
11712;BME280;5912;51.034;6.984;2023-08-07T10:57:59;56075.88;;;-142.13;39.17
11712;BME280;5912;51.034;6.984;2023-08-07T11:00:27;56085.91;;;-142.13;38.69
11712;BME280;5912;51.034;6.984;2023-08-07T11:02:53;56035.81;;;-142.13;38.48
11712;BME280;5912;51.034;6.984;2023-08-07T11:05:18;56041.84;;;-142.13;36.30
11712;BME280;5912;51.034;6.984;2023-08-07T11:07:45;56027.81;;;-142.13;36.42
11712;BME280;5912;51.034;6.984;2023-08-07T11:10:14;56069.88;;;-142.13;37.17
11712;BME280;5912;51.034;6.984;2023-08-07T11:12:45;56127.97;;;-142.13;37.00
11712;BME280;5912;51.034;6.984;2023-08-07T11:15:13;56091.91;;;-142.13;38.74
11712;BME280;5912;51.034;6.984;2023-08-07T11:17:52;56081.91;;;-142.13;37.45
11712;BME280;5912;51.034;6.984;2023-08-07T11:20:21;56041.84;;;-142.13;36.78
11712;BME280;5912;51.034;6.984;2023-08-07T11:22:46;56027.81;;;-142.13;36.23
11712;BME280;5912;51.034;6.984;2023-08-07T11:25:11;56001.78;;;-142.13;36.32
11712;BME280;5912;51.034;6.984;2023-08-07T11:27:50;56051.84;;;-142.13;35.32
11712;BME280;5912;51.034;6.984;2023-08-07T11:30:21;56077.91;;;-142.13;36.25
11712;BME280;5912;51.034;6.984;2023-08-07T11:32:53;56087.91;;;-142.13;36.23
11712;BME280;5912;51.034;6.984;2023-08-07T11:35:43;56063.88;;;-142.13;37.29
11712;BME280;5912;51.034;6.984;2023-08-07T11:38:40;56033.81;;;-142.13;35.66
11712;BME280;5912;51.034;6.984;2023-08-07T11:41:13;56021.81;;;-142.13;32.76
11712;BME280;5912;51.034;6.984;2023-08-07T11:44:04;56005.78;;;-142.13;32.74
11712;BME280;5912;51.034;6.984;2023-08-07T11:46:32;56059.88;;;-142.13;33.71
11712;BME280;5912;51.034;6.984;2023-08-07T11:49:01;56055.84;;;-142.13;34.35
11712;BME280;5912;51.034;6.984;2023-08-07T11:51:28;56079.91;;;-142.13;34.13
11712;BME280;5912;51.034;6.984;2023-08-07T11:53:54;56075.88;;;-142.13;33.84
11712;BME280;5912;51.034;6.984;2023-08-07T11:56:22;56127.97;;;-142.13;33.57
11712;BME280;5912;51.034;6.984;2023-08-07T11:58:48;56015.81;;;-142.13;33.41
11712;BME280;5912;51.034;6.984;2023-08-07T12:01:15;55993.75;;;-142.13;32.68
11712;BME280;5912;51.034;6.984;2023-08-07T12:04:30;55967.72;;;-142.13;31.24
11712;BME280;5912;51.034;6.984;2023-08-07T12:07:03;55921.66;;;-142.13;30.49
11712;BME280;5912;51.034;6.984;2023-08-07T12:09:30;55921.66;;;-142.13;30.15
11712;BME280;5912;51.034;6.984;2023-08-07T12:11:58;55931.66;;;-142.13;29.53
11712;BME280;5912;51.034;6.984;2023-08-07T12:14:28;55955.72;;;-142.13;30.01
11712;BME280;5912;51.034;6.984;2023-08-07T12:17:09;55991.75;;;-142.13;30.49
11712;BME280;5912;51.034;6.984;2023-08-07T12:19:46;56001.78;;;-142.13;31.59
11712;BME280;5912;51.034;6.984;2023-08-07T12:22:12;55955.72;;;-142.13;32.15
11712;BME280;5912;51.034;6.984;2023-08-07T12:24:43;55955.72;;;-142.13;30.10
11712;BME280;5912;51.034;6.984;2023-08-07T12:27:11;55983.75;;;-142.13;29.77
11712;BME280;5912;51.034;6.984;2023-08-07T12:29:37;55975.75;;;-142.13;30.37
11712;BME280;5912;51.034;6.984;2023-08-07T12:32:02;55995.78;;;-142.13;29.90
11712;BME280;5912;51.034;6.984;2023-08-07T12:34:28;56013.78;;;-142.13;29.33
11712;BME280;5912;51.034;6.984;2023-08-07T12:36:53;55991.75;;;-142.13;29.63
11712;BME280;5912;51.034;6.984;2023-08-07T12:39:19;55959.72;;;-142.13;29.59
11712;BME280;5912;51.034;6.984;2023-08-07T12:41:46;55941.69;;;-142.13;28.92
11712;BME280;5912;51.034;6.984;2023-08-07T12:44:13;55903.63;;;-142.13;28.38
11712;BME280;5912;51.034;6.984;2023-08-07T12:46:41;55875.59;;;-142.13;27.78
11712;BME280;5912;51.034;6.984;2023-08-07T12:49:09;55883.59;;;-142.13;27.59
11712;BME280;5912;51.034;6.984;2023-08-07T12:51:34;55865.56;;;-142.13;27.58
11712;BME280;5912;51.034;6.984;2023-08-07T12:54:02;55835.53;;;-142.13;27.31
11712;BME280;5912;51.034;6.984;2023-08-07T12:56:28;55803.47;;;-142.13;26.46
11712;BME280;5912;51.034;6.984;2023-08-07T12:59:12;55811.50;;;-142.13;25.44
11712;BME280;5912;51.034;6.984;2023-08-07T13:01:37;55813.50;;;-142.13;25.95
11712;BME280;5912;51.034;6.984;2023-08-07T13:04:02;55813.50;;;-142.13;25.63
11712;BME280;5912;51.034;6.984;2023-08-07T13:06:30;55831.53;;;-142.13;24.96
11712;BME280;5912;51.034;6.984;2023-08-07T13:08:56;55841.53;;;-142.13;25.21
11712;BME280;5912;51.034;6.984;2023-08-07T13:11:21;55931.66;;;-142.13;25.92
11712;BME280;5912;51.034;6.984;2023-08-07T13:13:46;55807.50;;;-142.13;25.11
11712;BME280;5912;51.034;6.984;2023-08-07T13:16:24;55807.50;;;-142.13;24.52
11712;BME280;5912;51.034;6.984;2023-08-07T13:18:49;55791.47;;;-142.13;24.99
11712;BME280;5912;51.034;6.984;2023-08-07T13:21:15;55815.50;;;-142.13;24.72
11712;BME280;5912;51.034;6.984;2023-08-07T13:24:04;55843.53;;;-142.13;24.92
11712;BME280;5912;51.034;6.984;2023-08-07T13:26:30;55835.53;;;-142.13;25.82
11712;BME280;5912;51.034;6.984;2023-08-07T13:29:07;55835.53;;;-142.13;24.92
11712;BME280;5912;51.034;6.984;2023-08-07T13:31:32;55831.53;;;-142.13;25.09
11712;BME280;5912;51.034;6.984;2023-08-07T13:34:16;55815.50;;;-142.13;24.96
11712;BME280;5912;51.034;6.984;2023-08-07T13:36:41;55811.50;;;-142.13;25.24
11712;BME280;5912;51.034;6.984;2023-08-07T13:39:07;55815.50;;;-142.13;25.19
11712;BME280;5912;51.034;6.984;2023-08-07T13:41:34;55843.53;;;-142.13;25.38
11712;BME280;5912;51.034;6.984;2023-08-07T13:47:12;55941.69;;;-142.13;26.95
11712;BME280;5912;51.034;6.984;2023-08-07T13:49:46;55971.72;;;-142.13;27.38
11712;BME280;5912;51.034;6.984;2023-08-07T13:52:13;55963.72;;;-142.13;27.49
11712;BME280;5912;51.034;6.984;2023-08-07T13:55:05;55947.69;;;-142.13;27.83
11712;BME280;5912;51.034;6.984;2023-08-07T13:57:45;55969.72;;;-142.13;28.00
11712;BME280;5912;51.034;6.984;2023-08-07T14:00:11;55923.66;;;-142.13;27.91
11712;BME280;5912;51.034;6.984;2023-08-07T14:02:37;55907.63;;;-142.13;27.23
11712;BME280;5912;51.034;6.984;2023-08-07T14:05:02;55879.59;;;-142.13;26.83
11712;BME280;5912;51.034;6.984;2023-08-07T14:07:28;55833.53;;;-142.13;26.03
11712;BME280;5912;51.034;6.984;2023-08-07T14:09:59;55851.56;;;-142.13;26.85